Time;durP1;ratioP1;P1;durP2;ratioP2;P2;SDS_P1;SDS_P2;PMS_P1;PMS_P2;Temp;Humidity;BMP_temperature;BMP_pressure;BME280_temperature;BME280_humidity;BME280_pressure;Samples;Min_cycle;Max_cycle;Signal;HPM_P1;HPM_P2
2023/10/21 00:01:23;;;;;;;;;;;;;;;;;;5075154;28;19924;-82
2023/10/21 00:03:49;;;;;;;;;;;;;;;;;;5075522;28;20415;-82
2023/10/21 00:06:15;;;;;;;;;;;;;;;;;;5074781;28;20478;-83
2023/10/21 00:08:41;;;;;;;;;;;;;;;;;;5075513;28;20321;-82
2023/10/21 00:11:12;;;;;;;;;;;;;;;;;;5091655;28;19920;-82
2023/10/21 00:13:38;;;;;;;;;;;;;;;;;;5092336;28;19959;-83
2023/10/21 00:16:04;;;;;;;;;;;;;;;;;;5075146;28;19955;-82
2023/10/21 00:18:30;;;;;;;;;;;;;;;;;;5075234;28;19920;-82
2023/10/21 00:20:55;;;;;;;;;;;;;;;;;;5092082;28;19924;-83
2023/10/21 00:23:21;;;;;;;;;;;;;;;;;;5086732;28;19924;-83
2023/10/21 00:25:47;;;;;;;;;;;;;;;;;;5074501;28;19920;-83
2023/10/21 00:28:14;;;;;;;;;;;;;;;;;;5059089;28;19925;-83
2023/10/21 00:30:41;;;;;;;;;;;;;;;;;;5088721;28;19927;-84
2023/10/21 00:33:07;;;;;;;;;;;;;;;;;;5095595;28;19920;-84
2023/10/21 00:35:33;;;;;;;;;;;;;;;;;;5078919;28;19947;-83
2023/10/21 00:37:58;;;;;;;;;;;;;;;;;;5095392;28;20011;-87
2023/10/21 00:40:24;;;;;;;;;;;;;;;;;;5088618;28;19920;-82
2023/10/21 00:42:50;;;;;;;;;;;;;;;;;;5073590;28;19926;-83
2023/10/21 00:45:16;;;;;;;;;;;;;;;;;;5078490;28;20369;-82
2023/10/21 00:47:42;;;;;;;;;;;;;;;;;;5081133;28;20352;-82
2023/10/21 00:50:08;;;;;;;;;;;;;;;;;;5075015;28;19920;-82
2023/10/21 00:52:34;;;;;;;;;;;;;;;;;;5089759;28;19927;-82
2023/10/21 00:55:00;;;;;;;;;;;;;;;;;;5087474;28;19931;-86
2023/10/21 00:57:26;;;;;;;;;;;;;;;;;;5076611;28;20372;-82
2023/10/21 00:59:52;;;;;;;;;;;;;;;;;;5095644;28;20353;-83
2023/10/21 01:02:18;;;;;;;;;;;;;;;;;;5078182;28;19920;-82
2023/10/21 01:04:44;;;;;;;;;;;;;;;;;;5095439;28;19985;-82
2023/10/21 01:07:11;;;;;;;;;;;;;;;;;;5077953;28;19920;-82
2023/10/21 01:09:37;;;;;;;;;;;;;;;;;;5095042;28;20300;-82
2023/10/21 01:12:03;;;;;;;;;;;;;;;;;;5074911;28;19924;-87
2023/10/21 01:14:29;;;;;;;;;;;;;;;;;;5066134;28;20414;-82
2023/10/21 01:16:55;;;;;;;;;;;;;;;;;;5078144;28;20378;-82
2023/10/21 01:19:21;;;;;;;;;;;;;;;;;;5094924;28;19927;-82
2023/10/21 01:21:46;;;;;;;;;;;;;;;;;;5094933;28;19920;-84
2023/10/21 01:24:12;;;;;;;;;;;;;;;;;;5094701;28;20411;-83
2023/10/21 01:26:38;;;;;;;;;;;;;;;;;;5094250;28;20361;-83
2023/10/21 01:29:04;;;;;;;;;;;;;;;;;;5078007;28;19927;-86
2023/10/21 01:31:32;;;;;;;;;;;;;;;;;;5066652;28;20015;-83
2023/10/21 01:33:58;;;;;;;;;;;;;;;;;;5076345;28;19924;-83
2023/10/21 01:36:24;;;;;;;;;;;;;;;;;;5077611;28;19927;-82
2023/10/21 01:38:50;;;;;;;;;;;;;;;;;;5094652;28;19920;-81
2023/10/21 01:41:16;;;;;;;;;;;;;;;;;;5094201;28;19924;-83
2023/10/21 01:43:42;;;;;;;;;;;;;;;;;;5077511;28;19926;-83
2023/10/21 01:46:08;;;;;;;;;;;;;;;;;;5093899;28;20007;-83
2023/10/21 01:48:34;;;;;;;;;;;;;;;;;;5094404;28;19920;-81
2023/10/21 01:51:01;;;;;;;;;;;;;;;;;;5077714;28;19927;-82
2023/10/21 01:53:27;;;;;;;;;;;;;;;;;;5077484;28;20010;-83
2023/10/21 01:55:53;;;;;;;;;;;;;;;;;;5077329;28;20043;-82
2023/10/21 01:58:19;;;;;;;;;;;;;;;;;;5093325;28;19926;-82
2023/10/21 02:00:44;;;;;;;;;;;;;;;;;;5074120;28;19921;-82
2023/10/21 02:03:11;;;;;;;;;;;;;;;;;;5074003;28;20419;-83
2023/10/21 02:05:38;;;;;;;;;;;;;;;;;;5057125;28;19920;-82
2023/10/21 02:08:04;;;;;;;;;;;;;;;;;;5073981;28;19920;-80
2023/10/21 02:10:30;;;;;;;;;;;;;;;;;;5057116;28;19928;-82
2023/10/21 02:12:56;;;;;;;;;;;;;;;;;;5057323;28;20058;-84
2023/10/21 02:15:22;;;;;;;;;;;;;;;;;;5073546;28;20483;-82
2023/10/21 02:17:48;;;;;;;;;;;;;;;;;;5057116;28;19920;-81
2023/10/21 02:20:14;;;;;;;;;;;;;;;;;;5073705;28;19921;-83
2023/10/21 02:22:40;;;;;;;;;;;;;;;;;;5057095;28;19926;-82
2023/10/21 02:25:06;;;;;;;;;;;;;;;;;;5079530;28;19924;-83
2023/10/21 02:27:32;;;;;;;;;;;;;;;;;;5082593;28;19916;-82
2023/10/21 02:29:58;;;;;;;;;;;;;;;;;;5057065;28;19935;-82
2023/10/21 02:32:24;;;;;;;;;;;;;;;;;;5073436;28;19920;-82
2023/10/21 02:34:50;;;;;;;;;;;;;;;;;;5056680;28;19927;-82
2023/10/21 02:37:16;;;;;;;;;;;;;;;;;;5073117;28;19920;-83
2023/10/21 02:39:42;;;;;;;;;;;;;;;;;;5073394;28;19921;-82
2023/10/21 02:42:08;;;;;;;;;;;;;;;;;;5073520;28;19928;-82
2023/10/21 02:44:35;;;;;;;;;;;;;;;;;;5083860;28;19920;-82
2023/10/21 02:47:01;;;;;;;;;;;;;;;;;;5086986;28;19924;-82
2023/10/21 02:49:27;;;;;;;;;;;;;;;;;;5082045;28;19927;-82
2023/10/21 02:51:53;;;;;;;;;;;;;;;;;;5093008;28;20361;-82
2023/10/21 02:54:19;;;;;;;;;;;;;;;;;;5076081;28;19978;-82
2023/10/21 02:56:45;;;;;;;;;;;;;;;;;;5076437;28;20269;-81
2023/10/21 02:59:11;;;;;;;;;;;;;;;;;;5093558;28;19988;-83
2023/10/21 03:01:37;;;;;;;;;;;;;;;;;;5093042;28;19920;-83
2023/10/21 03:04:03;;;;;;;;;;;;;;;;;;5093216;28;20015;-82
2023/10/21 03:06:29;;;;;;;;;;;;;;;;;;5075799;28;19927;-81
2023/10/21 03:08:55;;;;;;;;;;;;;;;;;;5076275;28;19927;-83
2023/10/21 03:11:21;;;;;;;;;;;;;;;;;;5081418;28;20011;-84
2023/10/21 03:13:47;;;;;;;;;;;;;;;;;;5067197;28;19920;-83
2023/10/21 03:16:15;;;;;;;;;;;;;;;;;;5093211;28;19969;-82
2023/10/21 03:18:41;;;;;;;;;;;;;;;;;;5075721;28;19920;-82
2023/10/21 03:21:07;;;;;;;;;;;;;;;;;;5076046;28;19967;-82
2023/10/21 03:23:33;;;;;;;;;;;;;;;;;;5092410;28;19924;-81
2023/10/21 03:26:00;;;;;;;;;;;;;;;;;;5092518;28;19985;-82
2023/10/21 03:28:26;;;;;;;;;;;;;;;;;;5092597;28;19920;-82
2023/10/21 03:30:52;;;;;;;;;;;;;;;;;;5075937;28;20346;-82
2023/10/21 03:33:18;;;;;;;;;;;;;;;;;;5075756;28;20313;-82
2023/10/21 03:35:44;;;;;;;;;;;;;;;;;;5075625;28;19943;-81
2023/10/21 03:38:10;;;;;;;;;;;;;;;;;;5072313;28;20066;-81
2023/10/21 03:40:36;;;;;;;;;;;;;;;;;;5071774;28;19928;-82
2023/10/21 03:43:02;;;;;;;;;;;;;;;;;;5072435;28;19920;-82
2023/10/21 03:45:29;;;;;;;;;;;;;;;;;;5071855;28;19921;-82
2023/10/21 03:47:55;;;;;;;;;;;;;;;;;;5055562;28;19920;-81
2023/10/21 03:50:21;;;;;;;;;;;;;;;;;;5068377;28;19969;-84
2023/10/21 03:52:47;;;;;;;;;;;;;;;;;;5071253;28;19921;-82
2023/10/21 03:55:13;;;;;;;;;;;;;;;;;;5073760;28;19924;-81
2023/10/21 03:57:39;;;;;;;;;;;;;;;;;;5077156;28;19920;-82
2023/10/21 04:00:05;;;;;;;;;;;;;;;;;;5091459;28;19973;-82
2023/10/21 04:02:31;;;;;;;;;;;;;;;;;;5091778;28;19927;-83
2023/10/21 04:04:57;;;;;;;;;;;;;;;;;;5075295;28;19920;-82
2023/10/21 04:07:23;;;;;;;;;;;;;;;;;;5091770;28;19972;-85
2023/10/21 04:09:49;;;;;;;;;;;;;;;;;;5092006;28;20345;-82
2023/10/21 04:12:15;;;;;;;;;;;;;;;;;;5092205;28;20395;-82
2023/10/21 04:14:41;;;;;;;;;;;;;;;;;;5087252;28;19943;-82
2023/10/21 04:17:07;;;;;;;;;;;;;;;;;;5055247;28;19920;-83
2023/10/21 04:19:33;;;;;;;;;;;;;;;;;;5071644;28;20023;-82
2023/10/21 04:21:59;;;;;;;;;;;;;;;;;;5071495;28;19920;-82
2023/10/21 04:24:25;;;;;;;;;;;;;;;;;;5055024;28;19927;-86
2023/10/21 04:26:51;;;;;;;;;;;;;;;;;;5071529;28;19920;-82
2023/10/21 04:29:17;;;;;;;;;;;;;;;;;;5071591;28;19921;-81
2023/10/21 04:31:43;;;;;;;;;;;;;;;;;;5071476;28;19925;-82
2023/10/21 04:34:09;;;;;;;;;;;;;;;;;;5071848;28;20358;-82
2023/10/21 04:36:35;;;;;;;;;;;;;;;;;;5071353;28;19932;-82
2023/10/21 04:39:01;;;;;;;;;;;;;;;;;;5062992;28;19969;-82
2023/10/21 04:41:27;;;;;;;;;;;;;;;;;;5074772;28;20011;-83
2023/10/21 04:43:53;;;;;;;;;;;;;;;;;;5091774;28;19989;-81
2023/10/21 04:46:19;;;;;;;;;;;;;;;;;;5091480;28;20421;-82
2023/10/21 04:48:45;;;;;;;;;;;;;;;;;;5056572;28;19920;-85
2023/10/21 04:51:11;;;;;;;;;;;;;;;;;;5071501;28;19920;-82
2023/10/21 04:53:37;;;;;;;;;;;;;;;;;;5071171;28;20346;-82
2023/10/21 04:56:03;;;;;;;;;;;;;;;;;;5054525;28;20327;-82
2023/10/21 04:58:29;;;;;;;;;;;;;;;;;;5071200;28;20271;-85
2023/10/21 05:00:55;;;;;;;;;;;;;;;;;;5054532;28;19981;-82
2023/10/21 05:03:22;;;;;;;;;;;;;;;;;;5070997;28;19928;-82
2023/10/21 05:05:48;;;;;;;;;;;;;;;;;;5054453;28;20281;-82
2023/10/21 05:08:14;;;;;;;;;;;;;;;;;;5071308;28;19924;-82
2023/10/21 05:10:40;;;;;;;;;;;;;;;;;;5071012;28;19920;-82
2023/10/21 05:13:06;;;;;;;;;;;;;;;;;;5074851;28;19926;-82
2023/10/21 05:15:32;;;;;;;;;;;;;;;;;;5058359;28;20003;-84
2023/10/21 05:17:58;;;;;;;;;;;;;;;;;;5058218;28;19927;-82
2023/10/21 05:20:24;;;;;;;;;;;;;;;;;;5074990;28;19924;-81
2023/10/21 05:22:50;;;;;;;;;;;;;;;;;;5057934;28;19982;-82
2023/10/21 05:25:15;;;;;;;;;;;;;;;;;;5074413;28;19924;-81
2023/10/21 05:27:41;;;;;;;;;;;;;;;;;;5079904;28;19989;-81
2023/10/21 05:30:07;;;;;;;;;;;;;;;;;;5078195;28;19943;-82
2023/10/21 05:32:33;;;;;;;;;;;;;;;;;;5077967;28;19924;-85
2023/10/21 05:34:59;;;;;;;;;;;;;;;;;;5077622;28;19920;-81
2023/10/21 05:37:26;;;;;;;;;;;;;;;;;;5094493;28;19934;-81
2023/10/21 05:39:52;;;;;;;;;;;;;;;;;;5077251;28;19927;-82
2023/10/21 05:42:18;;;;;;;;;;;;;;;;;;5077738;28;19973;-82
2023/10/21 05:44:44;;;;;;;;;;;;;;;;;;5075415;28;19924;-82
2023/10/21 05:47:10;;;;;;;;;;;;;;;;;;5094073;28;19926;-82
2023/10/21 05:49:36;;;;;;;;;;;;;;;;;;5094772;28;19920;-84
2023/10/21 05:52:02;;;;;;;;;;;;;;;;;;5094351;28;19920;-82
2023/10/21 05:54:28;;;;;;;;;;;;;;;;;;5094621;28;20044;-81
2023/10/21 05:56:53;;;;;;;;;;;;;;;;;;5094218;28;20356;-82
2023/10/21 05:59:19;;;;;;;;;;;;;;;;;;5077775;28;20333;-82
2023/10/21 06:01:45;;;;;;;;;;;;;;;;;;5077416;28;19920;-84
2023/10/21 06:04:11;;;;;;;;;;;;;;;;;;5094527;28;19942;-81
2023/10/21 06:06:37;;;;;;;;;;;;;;;;;;5070403;28;20007;-82
2023/10/21 06:09:04;;;;;;;;;;;;;;;;;;5073924;28;19924;-82
2023/10/21 06:11:29;;;;;;;;;;;;;;;;;;5057431;28;19975;-82
2023/10/21 06:13:55;;;;;;;;;;;;;;;;;;5073941;28;19971;-81
2023/10/21 06:16:21;;;;;;;;;;;;;;;;;;5057253;28;19927;-82
2023/10/21 06:18:47;;;;;;;;;;;;;;;;;;5073739;28;19920;-82
2023/10/21 06:21:14;;;;;;;;;;;;;;;;;;5057264;28;19981;-82
2023/10/21 06:23:41;;;;;;;;;;;;;;;;;;5072950;28;20003;-81
2023/10/21 06:26:07;;;;;;;;;;;;;;;;;;5073433;28;19981;-82
2023/10/21 06:28:34;;;;;;;;;;;;;;;;;;5063475;28;20365;-82
2023/10/21 06:31:00;;;;;;;;;;;;;;;;;;5073553;28;20258;-81
2023/10/21 06:33:26;;;;;;;;;;;;;;;;;;5073733;28;19943;-81
2023/10/21 06:35:52;;;;;;;;;;;;;;;;;;5073389;28;20342;-82
2023/10/21 06:38:18;;;;;;;;;;;;;;;;;;5073501;28;19927;-82
2023/10/21 06:40:44;;;;;;;;;;;;;;;;;;5075631;28;19984;-85
2023/10/21 06:43:10;;;;;;;;;;;;;;;;;;5093760;28;20022;-82
2023/10/21 06:45:38;;;;;;;;;;;;;;;;;;5093245;28;19957;-82
2023/10/21 06:48:04;;;;;;;;;;;;;;;;;;5093272;28;19923;-81
2023/10/21 06:50:30;;;;;;;;;;;;;;;;;;5093654;28;19926;-82
2023/10/21 06:52:56;;;;;;;;;;;;;;;;;;5064424;28;19920;-82
2023/10/21 06:55:22;;;;;;;;;;;;;;;;;;5086858;28;19920;-81
2023/10/21 06:57:48;;;;;;;;;;;;;;;;;;5093252;28;19920;-82
2023/10/21 07:00:14;;;;;;;;;;;;;;;;;;5076585;28;19924;-82
2023/10/21 07:02:40;;;;;;;;;;;;;;;;;;5076516;28;20015;-82
2023/10/21 07:05:09;;;;;;;;;;;;;;;;;;5076132;28;19916;-82
2023/10/21 07:07:35;;;;;;;;;;;;;;;;;;5092768;28;20337;-82
2023/10/21 07:10:01;;;;;;;;;;;;;;;;;;5091844;28;19970;-83
2023/10/21 07:12:27;;;;;;;;;;;;;;;;;;5075825;28;20278;-81
2023/10/21 07:14:53;;;;;;;;;;;;;;;;;;5069002;28;19925;-81
2023/10/21 07:17:19;;;;;;;;;;;;;;;;;;5084633;28;20397;-77
2023/10/21 07:19:45;;;;;;;;;;;;;;;;;;5075940;28;19920;-73
2023/10/21 07:22:12;;;;;;;;;;;;;;;;;;5070463;28;20377;-77
2023/10/21 07:24:45;;;;;;;;;;;;;;;;;;5070122;28;19985;-78
2023/10/21 07:27:11;;;;;;;;;;;;;;;;;;5053297;28;19927;-75
2023/10/21 07:29:37;;;;;;;;;;;;;;;;;;5081111;28;20273;-77
2023/10/21 07:32:04;;;;;;;;;;;;;;;;;;5091109;28;20397;-77
2023/10/21 07:34:30;;;;;;;;;;;;;;;;;;5075486;28;19920;-83
2023/10/21 07:36:57;;;;;;;;;;;;;;;;;;5074591;28;19927;-84
2023/10/21 07:39:23;;;;;;;;;;;;;;;;;;5092271;28;19973;-82
2023/10/21 07:41:49;;;;;;;;;;;;;;;;;;5075625;28;20292;-84
2023/10/21 07:44:15;;;;;;;;;;;;;;;;;;5093015;28;20007;-82
2023/10/21 07:46:41;;;;;;;;;;;;;;;;;;5092560;28;20360;-82
2023/10/21 07:49:07;;;;;;;;;;;;;;;;;;5092570;28;19976;-81
2023/10/21 07:51:33;;;;;;;;;;;;;;;;;;5075709;28;19924;-82
2023/10/21 07:53:59;;;;;;;;;;;;;;;;;;5075237;28;20365;-83
2023/10/21 07:56:25;;;;;;;;;;;;;;;;;;5075836;28;19926;-81
2023/10/21 07:58:51;;;;;;;;;;;;;;;;;;5092338;28;20380;-85
2023/10/21 08:01:17;;;;;;;;;;;;;;;;;;5092549;28;19924;-82
2023/10/21 08:03:43;;;;;;;;;;;;;;;;;;5092535;28;19924;-81
2023/10/21 08:06:09;;;;;;;;;;;;;;;;;;5092006;28;19920;-81
2023/10/21 08:08:35;;;;;;;;;;;;;;;;;;5092214;28;19920;-81
2023/10/21 08:11:02;;;;;;;;;;;;;;;;;;5074926;28;20349;-81
2023/10/21 08:13:28;;;;;;;;;;;;;;;;;;5075303;28;20398;-81
2023/10/21 08:15:54;;;;;;;;;;;;;;;;;;5092724;28;19920;-83
2023/10/21 08:18:20;;;;;;;;;;;;;;;;;;5070462;28;20372;-81
2023/10/21 08:20:46;;;;;;;;;;;;;;;;;;5095506;28;20269;-82
2023/10/21 08:23:12;;;;;;;;;;;;;;;;;;5072227;28;20036;-79
2023/10/21 08:25:38;;;;;;;;;;;;;;;;;;5070392;28;19970;-76
2023/10/21 08:28:05;;;;;;;;;;;;;;;;;;5070652;28;19921;-83
2023/10/21 08:30:30;;;;;;;;;;;;;;;;;;5084040;28;20417;-82
2023/10/21 08:32:57;;;;;;;;;;;;;;;;;;5091726;28;19920;-87
2023/10/21 08:35:23;;;;;;;;;;;;;;;;;;5092473;28;19946;-78
2023/10/21 08:37:49;;;;;;;;;;;;;;;;;;5090938;28;20373;-79
2023/10/21 08:40:15;;;;;;;;;;;;;;;;;;5090882;28;19924;-81
2023/10/21 08:42:41;;;;;;;;;;;;;;;;;;5092334;28;19942;-81
2023/10/21 08:45:07;;;;;;;;;;;;;;;;;;5070752;28;19963;-81
2023/10/21 08:47:33;;;;;;;;;;;;;;;;;;5065547;28;19963;-82
2023/10/21 08:49:59;;;;;;;;;;;;;;;;;;5098768;28;20422;-86
2023/10/21 08:52:25;;;;;;;;;;;;;;;;;;5095810;28;19942;-82
2023/10/21 08:54:51;;;;;;;;;;;;;;;;;;5095609;28;19963;-82
2023/10/21 08:57:17;;;;;;;;;;;;;;;;;;5095596;28;19920;-81
2023/10/21 08:59:43;;;;;;;;;;;;;;;;;;5088148;28;19967;-81
2023/10/21 09:02:09;;;;;;;;;;;;;;;;;;5077912;28;19926;-81
2023/10/21 09:04:35;;;;;;;;;;;;;;;;;;5095225;28;19920;-81
2023/10/21 09:07:01;;;;;;;;;;;;;;;;;;5094764;28;20364;-86
2023/10/21 09:09:27;;;;;;;;;;;;;;;;;;5095215;28;20388;-81
2023/10/21 09:11:53;;;;;;;;;;;;;;;;;;5095219;28;19919;-81
2023/10/21 09:14:19;;;;;;;;;;;;;;;;;;5077681;28;19937;-81
2023/10/21 09:16:44;;;;;;;;;;;;;;;;;;5094690;28;19927;-81
2023/10/21 09:19:11;;;;;;;;;;;;;;;;;;5088344;28;19928;-81
2023/10/21 09:21:37;;;;;;;;;;;;;;;;;;5073391;28;20378;-81
2023/10/21 09:24:03;;;;;;;;;;;;;;;;;;5077084;28;19924;-84
2023/10/21 09:26:29;;;;;;;;;;;;;;;;;;5094033;28;20292;-81
2023/10/21 09:28:55;;;;;;;;;;;;;;;;;;5093910;28;19923;-81
2023/10/21 09:31:21;;;;;;;;;;;;;;;;;;5094007;28;19927;-80
2023/10/21 09:33:47;;;;;;;;;;;;;;;;;;5077403;28;19942;-76
2023/10/21 09:36:13;;;;;;;;;;;;;;;;;;5093943;28;19920;-77
2023/10/21 09:38:39;;;;;;;;;;;;;;;;;;5071269;28;20270;-82
2023/10/21 09:41:05;;;;;;;;;;;;;;;;;;5072675;28;19920;-85
2023/10/21 09:43:31;;;;;;;;;;;;;;;;;;5094128;28;19927;-83
2023/10/21 09:45:57;;;;;;;;;;;;;;;;;;5074124;28;20361;-81
2023/10/21 09:48:23;;;;;;;;;;;;;;;;;;5073500;28;19966;-81
2023/10/21 09:50:49;;;;;;;;;;;;;;;;;;5074155;28;20023;-81
2023/10/21 09:53:15;;;;;;;;;;;;;;;;;;5073244;28;19925;-81
2023/10/21 09:55:41;;;;;;;;;;;;;;;;;;5073403;28;20010;-81
2023/10/21 09:58:07;;;;;;;;;;;;;;;;;;5075891;28;19962;-83
2023/10/21 10:00:35;;;;;;;;;;;;;;;;;;5094398;28;19974;-80
2023/10/21 10:03:01;;;;;;;;;;;;;;;;;;5093482;28;19920;-82
2023/10/21 10:05:27;;;;;;;;;;;;;;;;;;5093289;28;19998;-78
2023/10/21 10:07:53;;;;;;;;;;;;;;;;;;5076156;28;20020;-81
2023/10/21 10:10:19;;;;;;;;;;;;;;;;;;5090866;28;19990;-81
2023/10/21 10:12:45;;;;;;;;;;;;;;;;;;5092990;28;19920;-82
2023/10/21 10:15:11;;;;;;;;;;;;;;;;;;5089657;28;20006;-81
2023/10/21 10:17:37;;;;;;;;;;;;;;;;;;5090844;28;20061;-84
2023/10/21 10:20:07;;;;;;;;;;;;;;;;;;5073808;28;19933;-82
2023/10/21 10:22:33;;;;;;;;;;;;;;;;;;5072672;28;19920;-84
2023/10/21 10:24:59;;;;;;;;;;;;;;;;;;5090781;28;20379;-83
2023/10/21 10:27:25;;;;;;;;;;;;;;;;;;5089124;28;19920;-83
2023/10/21 10:29:51;;;;;;;;;;;;;;;;;;5092990;28;19927;-83
2023/10/21 10:32:17;;;;;;;;;;;;;;;;;;5090846;28;19920;-83
2023/10/21 10:34:43;;;;;;;;;;;;;;;;;;5085842;28;19994;-83
2023/10/21 10:37:09;;;;;;;;;;;;;;;;;;5093029;28;20349;-83
2023/10/21 10:39:35;;;;;;;;;;;;;;;;;;5066753;28;20116;-84
2023/10/21 10:42:01;;;;;;;;;;;;;;;;;;5060907;28;20460;-85
2023/10/21 10:44:27;;;;;;;;;;;;;;;;;;5079807;28;19942;-84
2023/10/21 10:46:53;;;;;;;;;;;;;;;;;;5092305;28;19926;-85
2023/10/21 10:49:20;;;;;;;;;;;;;;;;;;5075576;28;20026;-84
2023/10/21 10:51:46;;;;;;;;;;;;;;;;;;5076290;28;19927;-81
2023/10/21 10:54:15;;;;;;;;;;;;;;;;;;5089936;28;19920;-82
2023/10/21 10:56:44;;;;;;;;;;;;;;;;;;5070042;28;20377;-82
2023/10/21 10:59:09;;;;;;;;;;;;;;;;;;5082812;28;20366;-83
2023/10/21 11:01:36;;;;;;;;;;;;;;;;;;5092089;28;19922;-85
2023/10/21 11:04:02;;;;;;;;;;;;;;;;;;5090307;28;19959;-83
2023/10/21 11:06:28;;;;;;;;;;;;;;;;;;5073724;28;19920;-81
2023/10/21 11:08:56;;;;;;;;;;;;;;;;;;5073054;28;20333;-80
2023/10/21 11:11:22;;;;;;;;;;;;;;;;;;5109793;27;19967;-82
2023/10/21 11:13:48;;;;;;;;;;;;;;;;;;5074796;28;19970;-84
2023/10/21 11:16:15;;;;;;;;;;;;;;;;;;5072918;28;19921;-84
2023/10/21 11:18:41;;;;;;;;;;;;;;;;;;5090533;28;19926;-83
2023/10/21 11:21:10;;;;;;;;;;;;;;;;;;5085867;28;20007;-82
2023/10/21 11:23:36;;;;;;;;;;;;;;;;;;5088101;28;20356;-82
2023/10/21 11:26:07;;;;;;;;;;;;;;;;;;5056431;28;19925;-81
2023/10/21 11:28:33;;;;;;;;;;;;;;;;;;5071850;28;19925;-81
2023/10/21 11:31:01;;;;;;;;;;;;;;;;;;5055907;28;19927;-82
2023/10/21 11:33:27;;;;;;;;;;;;;;;;;;5056826;28;19920;-81
2023/10/21 11:35:53;;;;;;;;;;;;;;;;;;5091861;28;19981;-81
2023/10/21 11:38:19;;;;;;;;;;;;;;;;;;5091040;28;19926;-83
2023/10/21 11:40:45;;;;;;;;;;;;;;;;;;5070945;28;19943;-81
2023/10/21 11:43:14;;;;;;;;;;;;;;;;;;5071920;28;20358;-79
2023/10/21 11:45:40;;;;;;;;;;;;;;;;;;5071568;28;19916;-84
2023/10/21 11:48:19;;;;;;;;;;;;;;;;;;5023687;27;1971755;-81
2023/10/21 11:50:45;;;;;;;;;;;;;;;;;;5071987;28;19959;-81
2023/10/21 11:53:12;;;;;;;;;;;;;;;;;;5069522;28;19924;-81
2023/10/21 12:06:45;;;;;;;;;;;;;;;;;;5048170;28;19932;-81
2023/10/21 12:10:12;;;;;;;;;;;;;;;;;;5051068;28;19925;-81
2023/10/21 12:36:07;;;;;;;;;;;;;;;;;;5071166;28;19929;-82
2023/10/21 12:38:40;;;;;;;;;;;;;;;;;;5053680;28;19925;-82
2023/10/21 12:43:35;;;;;;;;;;;;;;;;;;5069823;28;19928;-82
2023/10/21 12:46:14;;;;;;;;;;;;;;;;;;5070629;28;19924;-82
2023/10/21 12:48:41;;;;;;;;;;;;;;;;;;5070453;28;19925;-83
2023/10/21 12:51:09;;;;;;;;;;;;;;;;;;5070192;28;20309;-82
2023/10/21 12:53:35;;;;;;;;;;;;;;;;;;5065508;28;20011;-82
2023/10/21 12:56:06;;;;;;;;;;;;;;;;;;5047891;28;20054;-82
2023/10/21 12:58:32;;;;;;;;;;;;;;;;;;5063329;28;19934;-82
2023/10/21 13:00:58;;;;;;;;;;;;;;;;;;5040903;28;20030;-82
2023/10/21 13:03:24;;;;;;;;;;;;;;;;;;5056643;28;19990;-83
2023/10/21 13:05:52;;;;;;;;;;;;;;;;;;5039581;28;19987;-82
2023/10/21 13:08:18;;;;;;;;;;;;;;;;;;5023018;28;20432;-82
2023/10/21 13:10:43;;;;;;;;;;;;;;;;;;5019345;28;19926;-76
2023/10/21 13:13:11;;;;;;;;;;;;;;;;;;5029962;28;19932;-78
2023/10/21 13:15:37;;;;;;;;;;;;;;;;;;5021745;28;19925;-77
2023/10/21 13:18:07;;;;;;;;;;;;;;;;;;5047329;28;19982;-82
2023/10/21 13:20:33;;;;;;;;;;;;;;;;;;5013535;28;20525;-83
2023/10/21 13:22:58;;;;;;;;;;;;;;;;;;5027861;28;20012;-81
2023/10/21 13:25:24;;;;;;;;;;;;;;;;;;5032981;28;19925;-81
2023/10/21 13:27:50;;;;;;;;;;;;;;;;;;5019292;28;19987;-79
2023/10/21 13:30:16;;;;;;;;;;;;;;;;;;5026474;28;19933;-83
2023/10/21 13:32:42;;;;;;;;;;;;;;;;;;5023740;28;19936;-87
2023/10/21 13:35:12;;;;;;;;;;;;;;;;;;5010994;28;20332;-88
2023/10/21 13:37:38;;;;;;;;;;;;;;;;;;5027673;28;20008;-82
2023/10/21 13:40:12;;;;;;;;;;;;;;;;;;5001648;28;19929;-81
2023/10/21 13:42:38;;;;;;;;;;;;;;;;;;5020331;28;19924;-82
2023/10/21 13:45:05;;;;;;;;;;;;;;;;;;5018460;28;19925;-82
2023/10/21 13:47:31;;;;;;;;;;;;;;;;;;5015950;28;19940;-81
2023/10/21 13:49:58;;;;;;;;;;;;;;;;;;5018433;28;19929;-81
2023/10/21 13:52:25;;;;;;;;;;;;;;;;;;4999390;28;19925;-82
2023/10/21 13:54:51;;;;;;;;;;;;;;;;;;4998719;28;19925;-81
2023/10/21 13:57:17;;;;;;;;;;;;;;;;;;5002403;28;19931;-82
2023/10/21 13:59:42;;;;;;;;;;;;;;;;;;5031641;28;19970;-83
2023/10/21 14:02:08;;;;;;;;;;;;;;;;;;5034504;28;19929;-81
2023/10/21 14:04:34;;;;;;;;;;;;;;;;;;5009991;28;20394;-81
2023/10/21 14:07:02;;;;;;;;;;;;;;;;;;5017519;28;19925;-81
2023/10/21 14:09:28;;;;;;;;;;;;;;;;;;5031694;28;19971;-82
2023/10/21 14:11:54;;;;;;;;;;;;;;;;;;4998874;28;20004;-81
2023/10/21 14:14:20;;;;;;;;;;;;;;;;;;5016387;28;19925;-81
2023/10/21 14:16:46;;;;;;;;;;;;;;;;;;5012201;28;20338;-81
2023/10/21 14:19:12;;;;;;;;;;;;;;;;;;5011626;28;20039;-82
2023/10/21 14:21:38;;;;;;;;;;;;;;;;;;5034152;28;19935;-85
2023/10/21 14:24:06;;;;;;;;;;;;;;;;;;5026666;28;19951;-85
2023/10/21 14:26:32;;;;;;;;;;;;;;;;;;5035767;28;19928;-82
2023/10/21 14:28:58;;;;;;;;;;;;;;;;;;5019530;28;19924;-83
2023/10/21 14:31:24;;;;;;;;;;;;;;;;;;5040567;28;19925;-84
2023/10/21 14:33:50;;;;;;;;;;;;;;;;;;5013541;28;19975;-83
2023/10/21 14:36:16;;;;;;;;;;;;;;;;;;5024549;28;19932;-83
2023/10/21 14:38:42;;;;;;;;;;;;;;;;;;5002534;28;19933;-87
2023/10/21 14:41:09;;;;;;;;;;;;;;;;;;5028962;28;19935;-82
2023/10/21 14:43:35;;;;;;;;;;;;;;;;;;5014708;28;19988;-82
2023/10/21 14:46:01;;;;;;;;;;;;;;;;;;5029287;28;19965;-83
2023/10/21 14:48:27;;;;;;;;;;;;;;;;;;5030185;28;19929;-81
2023/10/21 14:50:53;;;;;;;;;;;;;;;;;;5034952;28;20047;-82
2023/10/21 14:53:19;;;;;;;;;;;;;;;;;;5030715;28;20280;-81
2023/10/21 14:55:45;;;;;;;;;;;;;;;;;;5027229;28;20014;-81
2023/10/21 14:58:11;;;;;;;;;;;;;;;;;;5026074;28;20387;-82
2023/10/21 15:00:37;;;;;;;;;;;;;;;;;;5015885;28;19968;-82
2023/10/21 15:03:03;;;;;;;;;;;;;;;;;;5013240;28;19924;-83
2023/10/21 15:05:29;;;;;;;;;;;;;;;;;;5035810;28;19994;-81
2023/10/21 15:07:55;;;;;;;;;;;;;;;;;;5018679;28;20355;-80
2023/10/21 15:10:22;;;;;;;;;;;;;;;;;;5032562;28;19925;-82
2023/10/21 15:12:48;;;;;;;;;;;;;;;;;;5018962;28;19925;-83
2023/10/21 15:15:14;;;;;;;;;;;;;;;;;;5028403;28;19939;-83
2023/10/21 15:17:40;;;;;;;;;;;;;;;;;;5026620;28;20412;-82
2023/10/21 15:20:07;;;;;;;;;;;;;;;;;;5029228;28;19928;-85
2023/10/21 15:22:33;;;;;;;;;;;;;;;;;;5026772;28;19947;-82
2023/10/21 15:25:00;;;;;;;;;;;;;;;;;;5033512;28;20354;-91
2023/10/21 15:27:26;;;;;;;;;;;;;;;;;;5023145;28;20386;-83
2023/10/21 15:29:52;;;;;;;;;;;;;;;;;;5027263;28;19929;-84
2023/10/21 15:32:18;;;;;;;;;;;;;;;;;;5012538;28;19925;-84
2023/10/21 15:34:46;;;;;;;;;;;;;;;;;;5016055;28;19932;-83
2023/10/21 15:37:11;;;;;;;;;;;;;;;;;;5007267;28;19933;-82
2023/10/21 15:39:37;;;;;;;;;;;;;;;;;;5029918;28;19931;-82
2023/10/21 15:42:03;;;;;;;;;;;;;;;;;;5025985;28;19925;-81
2023/10/21 15:44:29;;;;;;;;;;;;;;;;;;5035059;28;19974;-82
2023/10/21 15:46:56;;;;;;;;;;;;;;;;;;5026260;28;19936;-82
2023/10/21 15:49:22;;;;;;;;;;;;;;;;;;5011030;28;19983;-80
2023/10/21 15:51:48;;;;;;;;;;;;;;;;;;5033341;28;19964;-82
2023/10/21 15:54:14;;;;;;;;;;;;;;;;;;5033872;28;19929;-81
2023/10/21 15:56:40;;;;;;;;;;;;;;;;;;5017756;28;19924;-81
2023/10/21 15:59:07;;;;;;;;;;;;;;;;;;5027437;28;20385;-84
2023/10/21 16:01:37;;;;;;;;;;;;;;;;;;5012213;28;19978;-84
2023/10/21 16:04:03;;;;;;;;;;;;;;;;;;5004732;28;19972;-78
2023/10/21 16:06:29;;;;;;;;;;;;;;;;;;5033329;28;19991;-79
2023/10/21 16:08:55;;;;;;;;;;;;;;;;;;5033876;28;19925;-85
2023/10/21 16:11:21;;;;;;;;;;;;;;;;;;5017019;28;19948;-80
2023/10/21 16:13:47;;;;;;;;;;;;;;;;;;5033269;28;19925;-81
2023/10/21 16:16:13;;;;;;;;;;;;;;;;;;5040389;28;19990;-82
2023/10/21 16:18:39;;;;;;;;;;;;;;;;;;5032790;28;19928;-82
2023/10/21 16:21:05;;;;;;;;;;;;;;;;;;5017606;28;19931;-82
2023/10/21 16:23:31;;;;;;;;;;;;;;;;;;5032429;28;19925;-80
2023/10/21 16:25:57;;;;;;;;;;;;;;;;;;5031709;28;19924;-82
2023/10/21 16:28:23;;;;;;;;;;;;;;;;;;5038885;28;19932;-81
2023/10/21 16:30:49;;;;;;;;;;;;;;;;;;5017024;28;19924;-82
2023/10/21 16:33:14;;;;;;;;;;;;;;;;;;5033056;28;19932;-79
2023/10/21 16:35:40;;;;;;;;;;;;;;;;;;5021044;28;19964;-82
2023/10/21 16:38:06;;;;;;;;;;;;;;;;;;5036774;28;19925;-81
2023/10/21 16:40:32;;;;;;;;;;;;;;;;;;5019982;28;20412;-80
2023/10/21 16:42:58;;;;;;;;;;;;;;;;;;5019506;28;19983;-84
2023/10/21 16:45:24;;;;;;;;;;;;;;;;;;5018637;28;19929;-79
2023/10/21 16:47:50;;;;;;;;;;;;;;;;;;5013567;28;19935;-81
2023/10/21 16:50:17;;;;;;;;;;;;;;;;;;5026707;28;19954;-78
2023/10/21 16:52:45;;;;;;;;;;;;;;;;;;5015367;28;19932;-80
2023/10/21 16:55:10;;;;;;;;;;;;;;;;;;5013814;28;19929;-79
2023/10/21 16:57:36;;;;;;;;;;;;;;;;;;5033720;28;19929;-81
2023/10/21 17:00:02;;;;;;;;;;;;;;;;;;5027610;28;20023;-79
2023/10/21 17:02:28;;;;;;;;;;;;;;;;;;5013244;28;19930;-79
2023/10/21 17:04:54;;;;;;;;;;;;;;;;;;5010734;28;19925;-78
2023/10/21 17:07:20;;;;;;;;;;;;;;;;;;5015209;28;20527;-78
2023/10/21 17:09:48;;;;;;;;;;;;;;;;;;5019190;28;20016;-78
2023/10/21 17:12:14;;;;;;;;;;;;;;;;;;5032218;28;19925;-79
2023/10/21 17:14:40;;;;;;;;;;;;;;;;;;5031038;28;20412;-78
2023/10/21 17:17:06;;;;;;;;;;;;;;;;;;5029391;28;19929;-79